sensor_id;sensor_type;location;lat;lon;timestamp;P1;durP1;ratioP1;P2;durP2;ratioP2
79728;SDS011;69218;52.132;5.418;2023-07-20T00:02:18;5.20;;;3.50;;
79728;SDS011;69218;52.132;5.418;2023-07-20T00:04:44;6.30;;;3.10;;
79728;SDS011;69218;52.132;5.418;2023-07-20T00:07:11;5.57;;;2.60;;
79728;SDS011;69218;52.132;5.418;2023-07-20T00:09:37;5.38;;;2.55;;
79728;SDS011;69218;52.132;5.418;2023-07-20T00:12:04;4.68;;;2.70;;
79728;SDS011;69218;52.132;5.418;2023-07-20T00:14:31;4.15;;;2.20;;
79728;SDS011;69218;52.132;5.418;2023-07-20T00:16:58;6.68;;;2.55;;
79728;SDS011;69218;52.132;5.418;2023-07-20T00:19:25;3.78;;;2.17;;
79728;SDS011;69218;52.132;5.418;2023-07-20T00:21:53;3.95;;;2.80;;
79728;SDS011;69218;52.132;5.418;2023-07-20T00:24:22;5.32;;;2.42;;
79728;SDS011;69218;52.132;5.418;2023-07-20T00:26:48;6.15;;;2.30;;
79728;SDS011;69218;52.132;5.418;2023-07-20T00:29:15;3.92;;;1.95;;
79728;SDS011;69218;52.132;5.418;2023-07-20T00:31:41;3.28;;;1.88;;
79728;SDS011;69218;52.132;5.418;2023-07-20T00:34:10;3.17;;;1.90;;
79728;SDS011;69218;52.132;5.418;2023-07-20T00:36:37;2.97;;;1.60;;
79728;SDS011;69218;52.132;5.418;2023-07-20T00:39:04;2.42;;;1.63;;
79728;SDS011;69218;52.132;5.418;2023-07-20T00:41:30;2.97;;;1.40;;
79728;SDS011;69218;52.132;5.418;2023-07-20T00:43:58;2.45;;;1.40;;
79728;SDS011;69218;52.132;5.418;2023-07-20T00:46:24;4.55;;;1.60;;
79728;SDS011;69218;52.132;5.418;2023-07-20T00:48:52;2.20;;;1.20;;
79728;SDS011;69218;52.132;5.418;2023-07-20T00:51:20;2.53;;;1.50;;
79728;SDS011;69218;52.132;5.418;2023-07-20T00:53:47;2.22;;;1.27;;
79728;SDS011;69218;52.132;5.418;2023-07-20T00:56:15;2.70;;;1.30;;
79728;SDS011;69218;52.132;5.418;2023-07-20T00:58:42;2.25;;;1.25;;
79728;SDS011;69218;52.132;5.418;2023-07-20T01:01:08;2.60;;;1.17;;
79728;SDS011;69218;52.132;5.418;2023-07-20T01:03:35;2.53;;;1.27;;
79728;SDS011;69218;52.132;5.418;2023-07-20T01:06:24;2.90;;;1.30;;
79728;SDS011;69218;52.132;5.418;2023-07-20T01:09:09;2.05;;;1.33;;
79728;SDS011;69218;52.132;5.418;2023-07-20T01:11:48;2.55;;;1.00;;
79728;SDS011;69218;52.132;5.418;2023-07-20T01:14:17;2.72;;;1.35;;
79728;SDS011;69218;52.132;5.418;2023-07-20T01:16:44;2.50;;;1.42;;
79728;SDS011;69218;52.132;5.418;2023-07-20T01:19:13;2.72;;;1.20;;
79728;SDS011;69218;52.132;5.418;2023-07-20T01:27:41;1.73;;;0.98;;
79728;SDS011;69218;52.132;5.418;2023-07-20T01:30:20;1.88;;;0.95;;
79728;SDS011;69218;52.132;5.418;2023-07-20T01:32:55;2.15;;;1.20;;
79728;SDS011;69218;52.132;5.418;2023-07-20T01:35:26;1.88;;;0.88;;
79728;SDS011;69218;52.132;5.418;2023-07-20T01:37:55;2.22;;;1.25;;
79728;SDS011;69218;52.132;5.418;2023-07-20T01:42:51;2.65;;;0.88;;
79728;SDS011;69218;52.132;5.418;2023-07-20T01:45:18;1.90;;;0.88;;
79728;SDS011;69218;52.132;5.418;2023-07-20T01:47:45;1.92;;;1.00;;
79728;SDS011;69218;52.132;5.418;2023-07-20T01:50:12;2.97;;;1.17;;
79728;SDS011;69218;52.132;5.418;2023-07-20T01:52:38;1.67;;;0.90;;
79728;SDS011;69218;52.132;5.418;2023-07-20T01:55:05;2.22;;;1.17;;
79728;SDS011;69218;52.132;5.418;2023-07-20T01:57:32;1.60;;;0.88;;
79728;SDS011;69218;52.132;5.418;2023-07-20T01:59:59;1.90;;;1.00;;
79728;SDS011;69218;52.132;5.418;2023-07-20T02:02:26;2.00;;;0.95;;
79728;SDS011;69218;52.132;5.418;2023-07-20T02:04:54;2.30;;;1.25;;
79728;SDS011;69218;52.132;5.418;2023-07-20T02:07:20;1.75;;;1.10;;
79728;SDS011;69218;52.132;5.418;2023-07-20T02:09:47;2.33;;;1.23;;
79728;SDS011;69218;52.132;5.418;2023-07-20T02:12:14;1.70;;;0.95;;
79728;SDS011;69218;52.132;5.418;2023-07-20T02:14:41;2.42;;;1.00;;
79728;SDS011;69218;52.132;5.418;2023-07-20T02:17:08;2.15;;;1.20;;
79728;SDS011;69218;52.132;5.418;2023-07-20T02:19:37;1.85;;;1.10;;
79728;SDS011;69218;52.132;5.418;2023-07-20T02:22:04;1.85;;;1.25;;
79728;SDS011;69218;52.132;5.418;2023-07-20T02:24:31;2.95;;;1.42;;
79728;SDS011;69218;52.132;5.418;2023-07-20T02:26:59;2.55;;;1.50;;
79728;SDS011;69218;52.132;5.418;2023-07-20T02:29:26;3.05;;;1.58;;
79728;SDS011;69218;52.132;5.418;2023-07-20T02:31:52;2.08;;;0.80;;
79728;SDS011;69218;52.132;5.418;2023-07-20T02:34:19;1.95;;;1.17;;
79728;SDS011;69218;52.132;5.418;2023-07-20T02:36:45;2.30;;;1.33;;
79728;SDS011;69218;52.132;5.418;2023-07-20T02:39:12;2.08;;;0.85;;
79728;SDS011;69218;52.132;5.418;2023-07-20T02:41:39;2.47;;;1.25;;
79728;SDS011;69218;52.132;5.418;2023-07-20T02:44:05;2.15;;;1.42;;
79728;SDS011;69218;52.132;5.418;2023-07-20T02:46:32;2.22;;;1.30;;
79728;SDS011;69218;52.132;5.418;2023-07-20T02:48:59;2.38;;;1.35;;
79728;SDS011;69218;52.132;5.418;2023-07-20T02:51:25;2.58;;;1.30;;
79728;SDS011;69218;52.132;5.418;2023-07-20T02:53:52;2.38;;;1.10;;
79728;SDS011;69218;52.132;5.418;2023-07-20T02:56:18;4.45;;;1.70;;
79728;SDS011;69218;52.132;5.418;2023-07-20T02:58:45;2.33;;;1.25;;
79728;SDS011;69218;52.132;5.418;2023-07-20T03:01:12;2.40;;;1.10;;
79728;SDS011;69218;52.132;5.418;2023-07-20T03:03:39;2.30;;;1.27;;
79728;SDS011;69218;52.132;5.418;2023-07-20T03:06:07;2.33;;;1.40;;
79728;SDS011;69218;52.132;5.418;2023-07-20T03:08:35;1.88;;;1.00;;
79728;SDS011;69218;52.132;5.418;2023-07-20T03:11:02;2.47;;;1.02;;
79728;SDS011;69218;52.132;5.418;2023-07-20T03:13:29;2.38;;;1.45;;
79728;SDS011;69218;52.132;5.418;2023-07-20T03:15:56;1.40;;;0.65;;
79728;SDS011;69218;52.132;5.418;2023-07-20T03:18:22;2.33;;;1.08;;
79728;SDS011;69218;52.132;5.418;2023-07-20T03:20:49;2.78;;;1.13;;
79728;SDS011;69218;52.132;5.418;2023-07-20T03:23:15;2.42;;;1.10;;
79728;SDS011;69218;52.132;5.418;2023-07-20T03:25:43;2.05;;;1.10;;
79728;SDS011;69218;52.132;5.418;2023-07-20T03:28:09;2.50;;;0.95;;
79728;SDS011;69218;52.132;5.418;2023-07-20T03:30:36;2.15;;;1.38;;
79728;SDS011;69218;52.132;5.418;2023-07-20T03:33:03;2.97;;;1.30;;
79728;SDS011;69218;52.132;5.418;2023-07-20T03:35:30;2.25;;;1.00;;
79728;SDS011;69218;52.132;5.418;2023-07-20T03:37:57;1.80;;;1.00;;
79728;SDS011;69218;52.132;5.418;2023-07-20T03:40:23;2.75;;;1.38;;
79728;SDS011;69218;52.132;5.418;2023-07-20T03:42:51;1.98;;;1.08;;
79728;SDS011;69218;52.132;5.418;2023-07-20T03:45:17;2.75;;;1.23;;
79728;SDS011;69218;52.132;5.418;2023-07-20T03:47:44;2.83;;;1.10;;
79728;SDS011;69218;52.132;5.418;2023-07-20T03:50:11;3.92;;;1.02;;
79728;SDS011;69218;52.132;5.418;2023-07-20T03:52:37;1.98;;;0.88;;
79728;SDS011;69218;52.132;5.418;2023-07-20T03:55:04;2.15;;;0.85;;
79728;SDS011;69218;52.132;5.418;2023-07-20T03:57:31;2.10;;;1.10;;
79728;SDS011;69218;52.132;5.418;2023-07-20T03:59:59;2.72;;;1.23;;
79728;SDS011;69218;52.132;5.418;2023-07-20T04:02:25;2.10;;;0.90;;
79728;SDS011;69218;52.132;5.418;2023-07-20T04:04:52;1.98;;;1.20;;
79728;SDS011;69218;52.132;5.418;2023-07-20T04:07:18;2.15;;;1.05;;
79728;SDS011;69218;52.132;5.418;2023-07-20T04:09:45;1.98;;;0.95;;
79728;SDS011;69218;52.132;5.418;2023-07-20T04:12:11;2.65;;;1.30;;
79728;SDS011;69218;52.132;5.418;2023-07-20T04:14:38;2.30;;;1.45;;
79728;SDS011;69218;52.132;5.418;2023-07-20T04:17:05;2.50;;;1.35;;
79728;SDS011;69218;52.132;5.418;2023-07-20T04:19:32;2.28;;;1.40;;
79728;SDS011;69218;52.132;5.418;2023-07-20T04:21:58;2.30;;;1.30;;
79728;SDS011;69218;52.132;5.418;2023-07-20T04:24:24;2.50;;;1.40;;
79728;SDS011;69218;52.132;5.418;2023-07-20T04:26:51;2.40;;;1.10;;
79728;SDS011;69218;52.132;5.418;2023-07-20T04:29:18;2.10;;;1.20;;
79728;SDS011;69218;52.132;5.418;2023-07-20T04:31:44;3.42;;;1.10;;
79728;SDS011;69218;52.132;5.418;2023-07-20T04:34:11;4.05;;;1.92;;
79728;SDS011;69218;52.132;5.418;2023-07-20T04:36:38;2.53;;;1.20;;
79728;SDS011;69218;52.132;5.418;2023-07-20T04:39:05;2.20;;;1.05;;
79728;SDS011;69218;52.132;5.418;2023-07-20T04:41:51;2.85;;;1.20;;
79728;SDS011;69218;52.132;5.418;2023-07-20T04:44:17;2.35;;;1.65;;
79728;SDS011;69218;52.132;5.418;2023-07-20T04:46:44;1.73;;;0.93;;
79728;SDS011;69218;52.132;5.418;2023-07-20T04:49:12;2.17;;;1.17;;
79728;SDS011;69218;52.132;5.418;2023-07-20T04:51:39;2.22;;;1.45;;
79728;SDS011;69218;52.132;5.418;2023-07-20T04:54:06;2.33;;;1.30;;
79728;SDS011;69218;52.132;5.418;2023-07-20T04:56:32;2.20;;;1.20;;
79728;SDS011;69218;52.132;5.418;2023-07-20T04:59:02;2.70;;;1.63;;
79728;SDS011;69218;52.132;5.418;2023-07-20T05:01:29;2.47;;;1.02;;
79728;SDS011;69218;52.132;5.418;2023-07-20T05:03:55;2.10;;;1.25;;
79728;SDS011;69218;52.132;5.418;2023-07-20T05:06:22;2.55;;;1.30;;
79728;SDS011;69218;52.132;5.418;2023-07-20T05:08:49;2.28;;;1.38;;
79728;SDS011;69218;52.132;5.418;2023-07-20T05:11:15;3.45;;;1.67;;
79728;SDS011;69218;52.132;5.418;2023-07-20T05:13:42;3.63;;;2.00;;
79728;SDS011;69218;52.132;5.418;2023-07-20T05:16:09;3.38;;;1.35;;
79728;SDS011;69218;52.132;5.418;2023-07-20T05:18:35;2.63;;;1.58;;
79728;SDS011;69218;52.132;5.418;2023-07-20T05:21:02;2.70;;;1.17;;
79728;SDS011;69218;52.132;5.418;2023-07-20T05:23:28;3.13;;;1.90;;
79728;SDS011;69218;52.132;5.418;2023-07-20T05:25:55;2.67;;;1.40;;
79728;SDS011;69218;52.132;5.418;2023-07-20T05:28:26;3.92;;;2.10;;
79728;SDS011;69218;52.132;5.418;2023-07-20T05:30:53;5.07;;;2.17;;
79728;SDS011;69218;52.132;5.418;2023-07-20T05:33:20;4.35;;;1.85;;
79728;SDS011;69218;52.132;5.418;2023-07-20T05:35:47;3.53;;;2.10;;
79728;SDS011;69218;52.132;5.418;2023-07-20T05:38:14;2.17;;;1.38;;
79728;SDS011;69218;52.132;5.418;2023-07-20T05:40:41;2.90;;;1.98;;
79728;SDS011;69218;52.132;5.418;2023-07-20T05:43:09;2.60;;;1.25;;
79728;SDS011;69218;52.132;5.418;2023-07-20T05:45:37;3.90;;;1.90;;
79728;SDS011;69218;52.132;5.418;2023-07-20T05:48:03;3.88;;;2.05;;
79728;SDS011;69218;52.132;5.418;2023-07-20T05:50:30;2.97;;;1.95;;
79728;SDS011;69218;52.132;5.418;2023-07-20T05:52:57;2.90;;;1.60;;
79728;SDS011;69218;52.132;5.418;2023-07-20T05:55:23;3.60;;;1.80;;
79728;SDS011;69218;52.132;5.418;2023-07-20T05:57:50;4.13;;;2.05;;
79728;SDS011;69218;52.132;5.418;2023-07-20T06:00:17;4.25;;;2.00;;
79728;SDS011;69218;52.132;5.418;2023-07-20T06:02:45;2.80;;;1.30;;
79728;SDS011;69218;52.132;5.418;2023-07-20T06:05:14;3.05;;;1.35;;
79728;SDS011;69218;52.132;5.418;2023-07-20T06:07:41;3.42;;;2.03;;
79728;SDS011;69218;52.132;5.418;2023-07-20T06:10:08;2.83;;;1.75;;
79728;SDS011;69218;52.132;5.418;2023-07-20T06:12:34;3.75;;;2.00;;
79728;SDS011;69218;52.132;5.418;2023-07-20T06:15:04;2.53;;;1.70;;
79728;SDS011;69218;52.132;5.418;2023-07-20T06:17:31;3.78;;;1.77;;
79728;SDS011;69218;52.132;5.418;2023-07-20T06:19:58;3.53;;;1.73;;
79728;SDS011;69218;52.132;5.418;2023-07-20T06:22:24;3.60;;;1.55;;
79728;SDS011;69218;52.132;5.418;2023-07-20T06:24:51;1.73;;;0.90;;
79728;SDS011;69218;52.132;5.418;2023-07-20T06:27:17;2.70;;;0.90;;
79728;SDS011;69218;52.132;5.418;2023-07-20T06:29:44;2.58;;;1.35;;
79728;SDS011;69218;52.132;5.418;2023-07-20T06:32:10;3.05;;;1.02;;
79728;SDS011;69218;52.132;5.418;2023-07-20T06:34:37;2.38;;;0.90;;
79728;SDS011;69218;52.132;5.418;2023-07-20T06:37:06;1.52;;;0.60;;
79728;SDS011;69218;52.132;5.418;2023-07-20T06:39:33;2.33;;;1.13;;
79728;SDS011;69218;52.132;5.418;2023-07-20T06:42:02;2.22;;;1.23;;
79728;SDS011;69218;52.132;5.418;2023-07-20T06:44:29;2.42;;;1.10;;
79728;SDS011;69218;52.132;5.418;2023-07-20T06:46:56;2.42;;;0.95;;
79728;SDS011;69218;52.132;5.418;2023-07-20T06:49:26;1.73;;;0.93;;
79728;SDS011;69218;52.132;5.418;2023-07-20T06:51:53;1.73;;;0.70;;
79728;SDS011;69218;52.132;5.418;2023-07-20T06:54:20;2.10;;;1.13;;
79728;SDS011;69218;52.132;5.418;2023-07-20T06:56:52;2.50;;;0.98;;
79728;SDS011;69218;52.132;5.418;2023-07-20T06:59:22;1.42;;;0.70;;
79728;SDS011;69218;52.132;5.418;2023-07-20T07:01:50;2.03;;;1.00;;
79728;SDS011;69218;52.132;5.418;2023-07-20T07:04:17;2.15;;;1.40;;
79728;SDS011;69218;52.132;5.418;2023-07-20T07:06:44;2.08;;;0.73;;
79728;SDS011;69218;52.132;5.418;2023-07-20T07:09:13;2.58;;;0.88;;
79728;SDS011;69218;52.132;5.418;2023-07-20T07:11:39;1.70;;;0.65;;
79728;SDS011;69218;52.132;5.418;2023-07-20T07:14:06;2.42;;;0.93;;
79728;SDS011;69218;52.132;5.418;2023-07-20T07:16:34;1.80;;;1.00;;
79728;SDS011;69218;52.132;5.418;2023-07-20T07:19:07;2.45;;;0.77;;
79728;SDS011;69218;52.132;5.418;2023-07-20T07:21:35;1.30;;;0.73;;
79728;SDS011;69218;52.132;5.418;2023-07-20T07:24:03;1.90;;;0.95;;
79728;SDS011;69218;52.132;5.418;2023-07-20T07:26:38;2.30;;;1.13;;
79728;SDS011;69218;52.132;5.418;2023-07-20T07:29:05;2.63;;;0.90;;
79728;SDS011;69218;52.132;5.418;2023-07-20T07:31:33;1.85;;;0.90;;
79728;SDS011;69218;52.132;5.418;2023-07-20T07:34:01;2.65;;;0.80;;
79728;SDS011;69218;52.132;5.418;2023-07-20T07:36:29;1.40;;;0.70;;
79728;SDS011;69218;52.132;5.418;2023-07-20T07:38:55;1.83;;;0.73;;
79728;SDS011;69218;52.132;5.418;2023-07-20T07:41:24;2.53;;;0.98;;
79728;SDS011;69218;52.132;5.418;2023-07-20T07:43:51;2.00;;;0.90;;
79728;SDS011;69218;52.132;5.418;2023-07-20T07:46:20;1.80;;;0.90;;
79728;SDS011;69218;52.132;5.418;2023-07-20T07:48:49;1.60;;;0.60;;
79728;SDS011;69218;52.132;5.418;2023-07-20T07:51:15;2.17;;;0.68;;
79728;SDS011;69218;52.132;5.418;2023-07-20T07:53:43;2.45;;;0.70;;
79728;SDS011;69218;52.132;5.418;2023-07-20T07:56:10;1.08;;;0.38;;
79728;SDS011;69218;52.132;5.418;2023-07-20T07:58:36;4.32;;;0.93;;
79728;SDS011;69218;52.132;5.418;2023-07-20T08:01:04;1.58;;;0.75;;
79728;SDS011;69218;52.132;5.418;2023-07-20T08:03:30;1.50;;;0.85;;
79728;SDS011;69218;52.132;5.418;2023-07-20T08:05:57;1.50;;;0.90;;
79728;SDS011;69218;52.132;5.418;2023-07-20T08:08:29;1.48;;;0.70;;
79728;SDS011;69218;52.132;5.418;2023-07-20T08:10:57;1.40;;;0.65;;
79728;SDS011;69218;52.132;5.418;2023-07-20T08:13:24;1.20;;;0.70;;
79728;SDS011;69218;52.132;5.418;2023-07-20T08:15:51;1.50;;;0.60;;
79728;SDS011;69218;52.132;5.418;2023-07-20T08:20:46;1.77;;;0.75;;
79728;SDS011;69218;52.132;5.418;2023-07-20T08:23:13;1.55;;;0.43;;
79728;SDS011;69218;52.132;5.418;2023-07-20T08:25:40;1.30;;;0.43;;
79728;SDS011;69218;52.132;5.418;2023-07-20T08:28:10;1.77;;;0.52;;
79728;SDS011;69218;52.132;5.418;2023-07-20T08:30:44;2.13;;;0.80;;
79728;SDS011;69218;52.132;5.418;2023-07-20T08:33:15;2.45;;;0.60;;
79728;SDS011;69218;52.132;5.418;2023-07-20T08:35:49;1.75;;;0.50;;
79728;SDS011;69218;52.132;5.418;2023-07-20T08:38:15;1.75;;;0.50;;
79728;SDS011;69218;52.132;5.418;2023-07-20T08:40:43;1.30;;;0.35;;
79728;SDS011;69218;52.132;5.418;2023-07-20T08:43:11;0.90;;;0.50;;
79728;SDS011;69218;52.132;5.418;2023-07-20T08:45:39;2.17;;;0.60;;
79728;SDS011;69218;52.132;5.418;2023-07-20T08:48:07;1.25;;;0.50;;
79728;SDS011;69218;52.132;5.418;2023-07-20T08:50:35;1.83;;;0.60;;
79728;SDS011;69218;52.132;5.418;2023-07-20T08:53:01;1.27;;;0.93;;
79728;SDS011;69218;52.132;5.418;2023-07-20T08:55:29;1.38;;;0.60;;
79728;SDS011;69218;52.132;5.418;2023-07-20T08:57:57;2.05;;;0.50;;
79728;SDS011;69218;52.132;5.418;2023-07-20T09:00:25;1.77;;;0.55;;
79728;SDS011;69218;52.132;5.418;2023-07-20T09:02:54;1.15;;;0.60;;
79728;SDS011;69218;52.132;5.418;2023-07-20T09:05:22;1.00;;;0.50;;
79728;SDS011;69218;52.132;5.418;2023-07-20T09:07:53;0.90;;;0.40;;
79728;SDS011;69218;52.132;5.418;2023-07-20T09:10:23;1.98;;;0.68;;
79728;SDS011;69218;52.132;5.418;2023-07-20T09:12:50;1.63;;;0.75;;
79728;SDS011;69218;52.132;5.418;2023-07-20T09:15:17;1.30;;;0.70;;
79728;SDS011;69218;52.132;5.418;2023-07-20T09:17:46;2.30;;;0.50;;
79728;SDS011;69218;52.132;5.418;2023-07-20T09:20:15;0.70;;;0.30;;
79728;SDS011;69218;52.132;5.418;2023-07-20T09:22:47;1.48;;;0.45;;
79728;SDS011;69218;52.132;5.418;2023-07-20T09:25:16;1.77;;;0.40;;
79728;SDS011;69218;52.132;5.418;2023-07-20T09:27:47;3.13;;;0.38;;
79728;SDS011;69218;52.132;5.418;2023-07-20T09:30:17;1.23;;;0.38;;
79728;SDS011;69218;52.132;5.418;2023-07-20T09:32:48;1.48;;;0.40;;
79728;SDS011;69218;52.132;5.418;2023-07-20T09:35:20;2.17;;;0.50;;
79728;SDS011;69218;52.132;5.418;2023-07-20T09:40:27;1.85;;;0.63;;
79728;SDS011;69218;52.132;5.418;2023-07-20T09:43:15;5.40;;;0.60;;
79728;SDS011;69218;52.132;5.418;2023-07-20T09:45:46;9.00;;;0.60;;
79728;SDS011;69218;52.132;5.418;2023-07-20T09:48:15;7.30;;;0.90;;
79728;SDS011;69218;52.132;5.418;2023-07-20T09:50:49;5.65;;;0.50;;
79728;SDS011;69218;52.132;5.418;2023-07-20T09:53:19;1.85;;;0.65;;
79728;SDS011;69218;52.132;5.418;2023-07-20T09:55:47;2.42;;;0.55;;
79728;SDS011;69218;52.132;5.418;2023-07-20T09:58:14;2.33;;;0.35;;
79728;SDS011;69218;52.132;5.418;2023-07-20T10:00:42;2.72;;;0.63;;
79728;SDS011;69218;52.132;5.418;2023-07-20T10:03:19;1.80;;;0.50;;
79728;SDS011;69218;52.132;5.418;2023-07-20T10:08:25;1.05;;;0.22;;
79728;SDS011;69218;52.132;5.418;2023-07-20T10:10:56;0.95;;;0.65;;
79728;SDS011;69218;52.132;5.418;2023-07-20T10:13:27;1.90;;;0.40;;
79728;SDS011;69218;52.132;5.418;2023-07-20T10:16:03;1.00;;;0.40;;
79728;SDS011;69218;52.132;5.418;2023-07-20T10:21:29;1.10;;;0.40;;
79728;SDS011;69218;52.132;5.418;2023-07-20T10:23:59;1.75;;;0.40;;
79728;SDS011;69218;52.132;5.418;2023-07-20T10:26:26;1.10;;;0.40;;
79728;SDS011;69218;52.132;5.418;2023-07-20T10:28:53;1.08;;;0.32;;
79728;SDS011;69218;52.132;5.418;2023-07-20T10:31:20;1.50;;;0.32;;
79728;SDS011;69218;52.132;5.418;2023-07-20T10:33:49;0.88;;;0.30;;
79728;SDS011;69218;52.132;5.418;2023-07-20T10:36:17;1.88;;;0.40;;
79728;SDS011;69218;52.132;5.418;2023-07-20T10:38:55;0.73;;;0.30;;
79728;SDS011;69218;52.132;5.418;2023-07-20T10:44:07;1.17;;;0.30;;
79728;SDS011;69218;52.132;5.418;2023-07-20T10:46:44;1.73;;;0.40;;
79728;SDS011;69218;52.132;5.418;2023-07-20T10:49:12;1.88;;;0.30;;
79728;SDS011;69218;52.132;5.418;2023-07-20T10:51:42;1.55;;;0.40;;
79728;SDS011;69218;52.132;5.418;2023-07-20T10:56:44;1.40;;;0.20;;
79728;SDS011;69218;52.132;5.418;2023-07-20T11:01:57;1.00;;;0.38;;
79728;SDS011;69218;52.132;5.418;2023-07-20T11:05:01;0.93;;;0.50;;
79728;SDS011;69218;52.132;5.418;2023-07-20T11:07:37;0.73;;;0.35;;
79728;SDS011;69218;52.132;5.418;2023-07-20T11:13:31;1.77;;;0.40;;
79728;SDS011;69218;52.132;5.418;2023-07-20T11:18:25;0.93;;;0.40;;
79728;SDS011;69218;52.132;5.418;2023-07-20T11:20:53;0.95;;;0.32;;
79728;SDS011;69218;52.132;5.418;2023-07-20T11:23:20;0.80;;;0.30;;
79728;SDS011;69218;52.132;5.418;2023-07-20T11:25:47;0.82;;;0.32;;
79728;SDS011;69218;52.132;5.418;2023-07-20T11:28:15;1.63;;;0.50;;
79728;SDS011;69218;52.132;5.418;2023-07-20T11:30:42;0.68;;;0.30;;
79728;SDS011;69218;52.132;5.418;2023-07-20T11:33:09;0.68;;;0.10;;
79728;SDS011;69218;52.132;5.418;2023-07-20T11:35:42;0.70;;;0.20;;
79728;SDS011;69218;52.132;5.418;2023-07-20T11:38:10;1.15;;;0.60;;
79728;SDS011;69218;52.132;5.418;2023-07-20T11:40:36;0.98;;;0.30;;
79728;SDS011;69218;52.132;5.418;2023-07-20T11:43:03;0.60;;;0.20;;
79728;SDS011;69218;52.132;5.418;2023-07-20T11:45:32;0.82;;;0.22;;
79728;SDS011;69218;52.132;5.418;2023-07-20T11:47:59;0.70;;;0.22;;
79728;SDS011;69218;52.132;5.418;2023-07-20T11:50:26;0.68;;;0.20;;
79728;SDS011;69218;52.132;5.418;2023-07-20T11:52:53;1.15;;;0.50;;
79728;SDS011;69218;52.132;5.418;2023-07-20T11:55:20;1.55;;;0.30;;
79728;SDS011;69218;52.132;5.418;2023-07-20T11:58:05;1.02;;;0.20;;
79728;SDS011;69218;52.132;5.418;2023-07-20T12:00:33;1.30;;;0.52;;
79728;SDS011;69218;52.132;5.418;2023-07-20T12:03:00;0.90;;;0.50;;
79728;SDS011;69218;52.132;5.418;2023-07-20T12:05:27;1.17;;;0.32;;
79728;SDS011;69218;52.132;5.418;2023-07-20T12:07:54;1.23;;;0.38;;
79728;SDS011;69218;52.132;5.418;2023-07-20T12:10:25;1.05;;;0.30;;
79728;SDS011;69218;52.132;5.418;2023-07-20T12:12:52;1.13;;;0.35;;
79728;SDS011;69218;52.132;5.418;2023-07-20T12:15:23;1.23;;;0.50;;
79728;SDS011;69218;52.132;5.418;2023-07-20T12:17:56;0.80;;;0.30;;
79728;SDS011;69218;52.132;5.418;2023-07-20T12:20:28;0.85;;;0.30;;
79728;SDS011;69218;52.132;5.418;2023-07-20T12:22:56;0.93;;;0.65;;
79728;SDS011;69218;52.132;5.418;2023-07-20T12:25:40;1.33;;;0.43;;
79728;SDS011;69218;52.132;5.418;2023-07-20T12:28:08;1.63;;;0.60;;
79728;SDS011;69218;52.132;5.418;2023-07-20T12:30:36;2.53;;;0.40;;
79728;SDS011;69218;52.132;5.418;2023-07-20T12:33:03;2.25;;;0.50;;
79728;SDS011;69218;52.132;5.418;2023-07-20T12:35:31;1.50;;;0.60;;
79728;SDS011;69218;52.132;5.418;2023-07-20T12:37:58;2.75;;;0.50;;
79728;SDS011;69218;52.132;5.418;2023-07-20T12:40:25;1.40;;;0.50;;
79728;SDS011;69218;52.132;5.418;2023-07-20T12:42:51;2.17;;;0.43;;
79728;SDS011;69218;52.132;5.418;2023-07-20T12:45:19;1.00;;;0.50;;
79728;SDS011;69218;52.132;5.418;2023-07-20T12:47:46;2.25;;;0.50;;
79728;SDS011;69218;52.132;5.418;2023-07-20T12:50:12;1.30;;;0.60;;
79728;SDS011;69218;52.132;5.418;2023-07-20T12:52:39;1.27;;;0.40;;
79728;SDS011;69218;52.132;5.418;2023-07-20T12:55:06;2.17;;;0.50;;
79728;SDS011;69218;52.132;5.418;2023-07-20T12:57:35;2.33;;;0.60;;
79728;SDS011;69218;52.132;5.418;2023-07-20T13:00:05;1.88;;;0.70;;
79728;SDS011;69218;52.132;5.418;2023-07-20T13:02:36;1.40;;;0.70;;
79728;SDS011;69218;52.132;5.418;2023-07-20T13:05:05;1.85;;;0.70;;
79728;SDS011;69218;52.132;5.418;2023-07-20T13:07:32;1.98;;;0.60;;
79728;SDS011;69218;52.132;5.418;2023-07-20T13:10:04;1.15;;;0.65;;
79728;SDS011;69218;52.132;5.418;2023-07-20T13:12:32;1.83;;;0.73;;
79728;SDS011;69218;52.132;5.418;2023-07-20T13:15:00;1.20;;;0.70;;
79728;SDS011;69218;52.132;5.418;2023-07-20T13:17:28;1.77;;;0.70;;
79728;SDS011;69218;52.132;5.418;2023-07-20T13:19:55;1.75;;;0.60;;
79728;SDS011;69218;52.132;5.418;2023-07-20T13:22:21;1.40;;;0.60;;
79728;SDS011;69218;52.132;5.418;2023-07-20T13:24:49;1.48;;;0.70;;
79728;SDS011;69218;52.132;5.418;2023-07-20T13:27:17;1.45;;;0.70;;
79728;SDS011;69218;52.132;5.418;2023-07-20T13:29:45;1.85;;;0.50;;
79728;SDS011;69218;52.132;5.418;2023-07-20T13:32:14;1.60;;;0.70;;
79728;SDS011;69218;52.132;5.418;2023-07-20T13:34:41;1.20;;;0.70;;
79728;SDS011;69218;52.132;5.418;2023-07-20T13:37:08;1.35;;;0.77;;
79728;SDS011;69218;52.132;5.418;2023-07-20T13:39:38;1.48;;;0.70;;
79728;SDS011;69218;52.132;5.418;2023-07-20T13:42:05;1.60;;;0.40;;
79728;SDS011;69218;52.132;5.418;2023-07-20T13:44:32;2.15;;;0.70;;
79728;SDS011;69218;52.132;5.418;2023-07-20T13:46:59;2.15;;;0.68;;
79728;SDS011;69218;52.132;5.418;2023-07-20T13:49:29;1.77;;;0.70;;
79728;SDS011;69218;52.132;5.418;2023-07-20T13:52:11;1.35;;;0.73;;
79728;SDS011;69218;52.132;5.418;2023-07-20T13:54:41;1.58;;;0.63;;
79728;SDS011;69218;52.132;5.418;2023-07-20T13:57:14;1.77;;;0.65;;
79728;SDS011;69218;52.132;5.418;2023-07-20T13:59:44;2.17;;;0.70;;
79728;SDS011;69218;52.132;5.418;2023-07-20T14:02:11;0.93;;;0.55;;
79728;SDS011;69218;52.132;5.418;2023-07-20T14:04:43;1.30;;;0.63;;
79728;SDS011;69218;52.132;5.418;2023-07-20T14:07:10;1.38;;;0.70;;
79728;SDS011;69218;52.132;5.418;2023-07-20T14:09:37;0.98;;;0.50;;
79728;SDS011;69218;52.132;5.418;2023-07-20T14:12:24;2.92;;;0.60;;
79728;SDS011;69218;52.132;5.418;2023-07-20T14:14:50;1.73;;;0.70;;
79728;SDS011;69218;52.132;5.418;2023-07-20T14:17:17;1.63;;;0.50;;
79728;SDS011;69218;52.132;5.418;2023-07-20T14:19:43;1.23;;;0.50;;
79728;SDS011;69218;52.132;5.418;2023-07-20T14:22:10;1.20;;;0.70;;
79728;SDS011;69218;52.132;5.418;2023-07-20T14:24:38;3.35;;;0.90;;
79728;SDS011;69218;52.132;5.418;2023-07-20T14:27:04;1.58;;;0.50;;
79728;SDS011;69218;52.132;5.418;2023-07-20T14:29:31;1.90;;;0.93;;
79728;SDS011;69218;52.132;5.418;2023-07-20T14:31:58;1.45;;;0.73;;
79728;SDS011;69218;52.132;5.418;2023-07-20T14:34:25;1.80;;;0.70;;
79728;SDS011;69218;52.132;5.418;2023-07-20T14:36:53;1.02;;;0.57;;
79728;SDS011;69218;52.132;5.418;2023-07-20T14:39:20;1.15;;;0.45;;
79728;SDS011;69218;52.132;5.418;2023-07-20T14:41:46;1.58;;;0.93;;
79728;SDS011;69218;52.132;5.418;2023-07-20T14:44:16;1.08;;;0.65;;
79728;SDS011;69218;52.132;5.418;2023-07-20T14:46:42;1.60;;;0.65;;
79728;SDS011;69218;52.132;5.418;2023-07-20T14:49:25;1.30;;;0.60;;
79728;SDS011;69218;52.132;5.418;2023-07-20T14:51:52;1.52;;;0.70;;
79728;SDS011;69218;52.132;5.418;2023-07-20T14:54:19;1.20;;;0.60;;
79728;SDS011;69218;52.132;5.418;2023-07-20T14:56:49;1.15;;;0.52;;
79728;SDS011;69218;52.132;5.418;2023-07-20T14:59:20;1.23;;;0.55;;
79728;SDS011;69218;52.132;5.418;2023-07-20T15:01:46;2.28;;;0.70;;
79728;SDS011;69218;52.132;5.418;2023-07-20T15:04:13;2.33;;;0.68;;
79728;SDS011;69218;52.132;5.418;2023-07-20T15:06:40;3.08;;;0.90;;
79728;SDS011;69218;52.132;5.418;2023-07-20T15:09:07;1.10;;;0.60;;
79728;SDS011;69218;52.132;5.418;2023-07-20T15:11:36;1.65;;;0.50;;
79728;SDS011;69218;52.132;5.418;2023-07-20T15:14:05;1.70;;;0.40;;
79728;SDS011;69218;52.132;5.418;2023-07-20T15:16:32;2.22;;;0.65;;
79728;SDS011;69218;52.132;5.418;2023-07-20T15:18:59;2.15;;;0.60;;
79728;SDS011;69218;52.132;5.418;2023-07-20T15:21:25;1.00;;;0.50;;
79728;SDS011;69218;52.132;5.418;2023-07-20T15:23:57;1.40;;;0.60;;
79728;SDS011;69218;52.132;5.418;2023-07-20T15:26:27;1.13;;;0.40;;
79728;SDS011;69218;52.132;5.418;2023-07-20T15:28:57;1.65;;;0.50;;